Time;durP1;ratioP1;P1;durP2;ratioP2;P2;SDS_P1;SDS_P2;PMS_P1;PMS_P2;Temp;Humidity;BMP_temperature;BMP_pressure;BME280_temperature;BME280_humidity;BME280_pressure;Samples;Min_cycle;Max_cycle;Signal;HPM_P1;HPM_P2
2023/01/24 00:01:28;;;;;;;20.33;12.25;;;;;2.30;100040.00;;;;4934210;29;20047;-61
2023/01/24 00:03:54;;;;;;;19.63;11.52;;;;;2.30;100040.00;;;;4917651;29;20071;-61
2023/01/24 00:06:21;;;;;;;19.67;12.55;;;;;2.30;100038.00;;;;4934125;29;20043;-62
2023/01/24 00:08:48;;;;;;;17.17;11.15;;;;;2.30;100033.00;;;;4917334;29;20060;-61
2023/01/24 00:11:14;;;;;;;19.02;12.50;;;;;2.30;100031.00;;;;4934468;29;20055;-61
2023/01/24 00:13:41;;;;;;;20.35;12.43;;;;;2.20;100034.00;;;;4935777;29;20039;-61
2023/01/24 00:16:16;;;;;;;19.85;11.48;;;;;2.20;100032.00;;;;4935941;29;20051;-61
2023/01/24 00:18:43;;;;;;;20.52;12.93;;;;;2.20;100040.00;;;;4935465;29;20047;-61
2023/01/24 00:21:18;;;;;;;18.48;12.05;;;;;2.20;100036.00;;;;4935171;29;20051;-61
2023/01/24 00:23:47;;;;;;;20.55;12.45;;;;;2.20;100042.00;;;;4934945;29;20058;-61
2023/01/24 00:26:16;;;;;;;18.90;12.52;;;;;2.20;100039.00;;;;4934078;29;20047;-61
2023/01/24 00:28:45;;;;;;;17.48;11.90;;;;;2.20;100049.00;;;;4934491;29;20043;-61
2023/01/24 00:31:12;;;;;;;18.65;12.88;;;;;2.20;100042.00;;;;4934257;29;20047;-61
2023/01/24 00:33:39;;;;;;;21.55;13.55;;;;;2.20;100042.00;;;;4934271;29;20052;-62
2023/01/24 00:36:08;;;;;;;22.15;13.32;;;;;2.20;100035.00;;;;4917179;29;20131;-62
2023/01/24 00:38:34;;;;;;;20.25;12.20;;;;;2.20;100038.00;;;;4934236;29;20057;-61
2023/01/24 00:41:01;;;;;;;19.40;12.30;;;;;2.20;100032.00;;;;4934286;29;20048;-58
2023/01/24 00:43:29;;;;;;;20.02;12.50;;;;;2.20;100039.00;;;;4934237;29;20463;-61
2023/01/24 00:45:56;;;;;;;17.85;12.27;;;;;2.20;100037.00;;;;4933694;29;20047;-61
2023/01/24 00:48:23;;;;;;;19.63;12.15;;;;;2.20;100027.00;;;;4917046;29;20051;-61
2023/01/24 00:50:49;;;;;;;17.75;12.07;;;;;2.10;100029.00;;;;4934255;29;20055;-61
2023/01/24 00:53:17;;;;;;;19.40;11.75;;;;;2.10;100029.00;;;;4933970;29;20040;-61
2023/01/24 00:55:45;;;;;;;19.38;11.50;;;;;2.10;100028.00;;;;4933380;29;20040;-61
2023/01/24 00:58:13;;;;;;;17.13;11.90;;;;;2.10;100020.00;;;;4917241;29;20063;-62
2023/01/24 01:00:40;;;;;;;16.67;10.57;;;;;2.10;100023.00;;;;4916997;29;20063;-62
2023/01/24 01:03:14;;;;;;;17.67;10.82;;;;;2.10;100012.00;;;;4934159;29;20044;-63
2023/01/24 01:05:42;;;;;;;16.08;10.32;;;;;2.10;100022.00;;;;4933764;29;20489;-61
2023/01/24 01:08:09;;;;;;;16.45;10.70;;;;;2.10;100023.00;;;;4934148;29;20062;-61
2023/01/24 01:10:36;;;;;;;19.50;11.48;;;;;2.10;100021.00;;;;4916818;29;20503;-61
2023/01/24 01:13:03;;;;;;;18.38;10.85;;;;;2.10;100029.00;;;;4936143;29;20050;-61
2023/01/24 01:15:30;;;;;;;17.05;10.90;;;;;2.20;100032.00;;;;4920072;29;20110;-61
2023/01/24 01:17:58;;;;;;;15.07;10.43;;;;;2.10;100029.00;;;;4937600;29;20500;-61
2023/01/24 01:20:26;;;;;;;15.57;10.43;;;;;2.10;100037.00;;;;4937385;29;20047;-62
2023/01/24 01:22:53;;;;;;;16.95;10.52;;;;;2.10;100035.00;;;;4920576;29;20122;-61
2023/01/24 01:25:19;;;;;;;15.65;9.75;;;;;2.20;100038.00;;;;4936794;29;20501;-63
2023/01/24 01:27:46;;;;;;;17.55;11.38;;;;;2.20;100028.00;;;;4904711;29;20051;-60
2023/01/24 01:30:13;;;;;;;17.10;10.73;;;;;2.20;100031.00;;;;4937403;29;20043;-61
2023/01/24 01:32:40;;;;;;;16.45;10.32;;;;;2.20;100032.00;;;;4919855;29;20051;-61
2023/01/24 01:35:07;;;;;;;17.08;10.77;;;;;2.20;100031.00;;;;4936909;29;20252;-62
2023/01/24 01:37:33;;;;;;;16.55;10.10;;;;;2.20;100030.00;;;;4939169;29;20058;-62
2023/01/24 01:40:00;;;;;;;16.42;9.65;;;;;2.20;100031.00;;;;4922541;29;20058;-61
2023/01/24 01:42:39;;;;;;;15.82;10.02;;;;;2.20;100035.00;;;;4937672;29;20051;-61
2023/01/24 01:45:37;;;;;;;16.20;9.93;;;;;2.20;100042.00;;;;4936830;29;20058;-60
2023/01/24 01:48:27;;;;;;;14.68;9.82;;;;;2.20;100038.00;;;;4919959;29;20047;-60
2023/01/24 01:51:10;;;;;;;15.18;10.48;;;;;2.20;100044.00;;;;4920128;29;20052;-61
2023/01/24 01:53:43;;;;;;;16.77;10.90;;;;;2.10;100041.00;;;;4936903;29;20088;-61
2023/01/24 01:56:40;;;;;;;16.80;10.93;;;;;2.20;100043.00;;;;4919489;29;20086;-61
2023/01/24 01:59:12;;;;;;;16.52;10.43;;;;;2.10;100045.00;;;;4914145;29;20055;-60
2023/01/24 02:01:42;;;;;;;16.00;10.18;;;;;2.10;100051.00;;;;4919478;29;20084;-61
2023/01/24 02:04:16;;;;;;;19.80;11.73;;;;;2.10;100042.00;;;;4936209;29;20050;-60
2023/01/24 02:07:08;;;;;;;13.13;9.95;;;;;2.10;100039.00;;;;4919522;29;20059;-61
2023/01/24 02:09:41;;;;;;;18.17;11.07;;;;;2.10;100030.00;;;;4919404;29;20114;-61
2023/01/24 02:12:15;;;;;;;15.05;9.65;;;;;2.10;100038.00;;;;4920665;29;20070;-61
2023/01/24 02:17:30;;;;;;;15.88;10.02;;;;;2.10;100047.00;;;;4920138;29;20107;-61
2023/01/24 02:20:06;;;;;;;16.17;10.63;;;;;2.10;100046.00;;;;4919480;29;20043;-61
2023/01/24 02:22:53;;;;;;;15.73;11.05;;;;;2.00;100042.00;;;;4919378;29;20102;-61
2023/01/24 02:25:29;;;;;;;18.52;10.98;;;;;2.00;100052.00;;;;4935599;29;20051;-61
2023/01/24 02:27:58;;;;;;;16.92;10.68;;;;;1.90;100043.00;;;;4919194;29;20155;-61
2023/01/24 02:30:25;;;;;;;16.27;10.50;;;;;2.00;100058.00;;;;4919052;29;20051;-61
2023/01/24 02:32:52;;;;;;;18.10;11.13;;;;;2.00;100050.00;;;;4918762;29;20095;-61
2023/01/24 02:35:29;;;;;;;20.05;11.20;;;;;2.00;100070.00;;;;4918499;29;20047;-61
2023/01/24 02:37:58;;;;;;;19.40;11.73;;;;;2.00;100063.00;;;;4919009;29;20083;-61
2023/01/24 02:40:27;;;;;;;18.77;11.30;;;;;2.00;100069.00;;;;4936179;29;20095;-62
2023/01/24 02:42:56;;;;;;;17.83;11.40;;;;;2.00;100078.00;;;;4918803;29;20044;-62
2023/01/24 02:45:26;;;;;;;15.73;10.63;;;;;2.00;100078.00;;;;4918321;29;20059;-62
2023/01/24 02:47:54;;;;;;;21.23;12.13;;;;;2.00;100087.00;;;;4935970;29;20054;-62
2023/01/24 02:50:24;;;;;;;18.08;11.70;;;;;2.00;100084.00;;;;4935952;29;20047;-62
2023/01/24 02:58:05;;;;;;;18.25;12.07;;;;;2.00;100091.00;;;;4918638;29;20048;-62
2023/01/24 02:58:28;;;;;;;16.83;11.45;;;;;2.00;100087.00;;;;4919811;29;20054;-61
2023/01/24 03:00:55;;;;;;;17.38;11.23;;;;;2.00;100076.00;;;;4919399;29;20131;-62
2023/01/24 03:03:22;;;;;;;18.75;11.35;;;;;2.00;100080.00;;;;4918389;29;20489;-62
2023/01/24 03:05:58;;;;;;;17.33;11.18;;;;;1.90;100077.00;;;;4935199;29;20154;-62
2023/01/24 03:08:33;;;;;;;19.90;12.27;;;;;1.90;100080.00;;;;4919061;29;20512;-63
2023/01/24 03:11:02;;;;;;;16.70;10.68;;;;;1.90;100083.00;;;;4919268;29;20142;-62
2023/01/24 03:35:58;;;;;;;18.30;12.85;;;;;2.00;100078.00;;;;4917187;29;20057;-63
2023/01/24 03:41:15;;;;;;;20.23;13.10;;;;;2.00;100070.00;;;;4917942;29;20488;-62
2023/01/24 03:43:43;;;;;;;21.05;12.65;;;;;2.00;100069.00;;;;4935094;29;20059;-61
2023/01/24 03:46:11;;;;;;;20.00;12.43;;;;;2.00;100070.00;;;;4917234;29;20059;-61
2023/01/24 03:48:45;;;;;;;19.67;12.75;;;;;2.00;100061.00;;;;4917883;29;20147;-62
2023/01/24 03:53:58;;;;;;;22.13;13.35;;;;;2.00;100068.00;;;;4917888;29;20051;-58
2023/01/24 03:56:30;;;;;;;20.83;13.05;;;;;1.90;100075.00;;;;4917722;29;20111;-60
2023/01/24 03:58:59;;;;;;;20.77;13.48;;;;;2.00;100078.00;;;;4917800;29;20441;-60
2023/01/24 04:01:29;;;;;;;21.67;13.57;;;;;2.00;100085.00;;;;4917350;29;20557;-61
2023/01/24 04:04:05;;;;;;;20.98;12.70;;;;;2.00;100084.00;;;;4917811;29;20051;-60
2023/01/24 04:06:33;;;;;;;19.90;12.77;;;;;2.00;100084.00;;;;4918018;29;20075;-60
2023/01/24 04:09:01;;;;;;;19.15;13.35;;;;;2.00;100081.00;;;;4918761;29;20058;-60
2023/01/24 04:11:28;;;;;;;19.88;11.63;;;;;2.00;100080.00;;;;4920044;29;20043;-60
2023/01/24 04:14:11;;;;;;;20.85;12.68;;;;;2.00;100077.00;;;;4918785;29;20074;-60
2023/01/24 04:16:50;;;;;;;21.05;12.50;;;;;2.00;100081.00;;;;4918289;29;20111;-61
2023/01/24 04:19:20;;;;;;;20.48;11.80;;;;;2.00;100070.00;;;;4917924;29;20479;-60
2023/01/24 04:21:47;;;;;;;20.00;11.30;;;;;2.00;100065.00;;;;4934779;29;20070;-59
2023/01/24 04:24:14;;;;;;;17.95;11.15;;;;;1.90;100070.00;;;;4917248;29;20035;-60
2023/01/24 04:26:44;;;;;;;20.13;12.32;;;;;1.90;100075.00;;;;4917954;29;20111;-60
2023/01/24 04:29:16;;;;;;;19.95;12.43;;;;;2.00;100065.00;;;;4917982;29;20135;-60
2023/01/24 04:31:46;;;;;;;18.35;12.10;;;;;2.00;100060.00;;;;4917798;29;20054;-61
2023/01/24 04:34:21;;;;;;;19.70;12.63;;;;;2.00;100056.00;;;;4917131;29;20055;-62
2023/01/24 04:36:48;;;;;;;19.27;11.60;;;;;2.00;100061.00;;;;4917886;29;20047;-61
2023/01/24 04:39:15;;;;;;;19.63;12.23;;;;;2.00;100058.00;;;;4917717;29;20465;-60
2023/01/24 04:41:54;;;;;;;20.05;12.75;;;;;2.00;100065.00;;;;4917681;29;20500;-62
2023/01/24 04:44:21;;;;;;;19.67;12.73;;;;;2.00;100056.00;;;;4934365;29;20067;-62
2023/01/24 04:46:48;;;;;;;17.55;12.32;;;;;2.00;100060.00;;;;4934711;29;20047;-63
2023/01/24 04:49:17;;;;;;;21.17;12.50;;;;;1.90;100054.00;;;;4921239;29;20052;-58
2023/01/24 04:51:47;;;;;;;20.65;12.30;;;;;1.90;100064.00;;;;4921637;29;20059;-59
2023/01/24 04:54:19;;;;;;;20.55;12.20;;;;;1.90;100062.00;;;;4920819;29;20156;-60
2023/01/24 04:56:47;;;;;;;18.73;12.68;;;;;1.90;100060.00;;;;4921374;29;20158;-58
2023/01/24 04:59:15;;;;;;;19.35;12.85;;;;;1.90;100075.00;;;;4921651;29;20051;-59
2023/01/24 05:01:42;;;;;;;18.50;10.68;;;;;2.00;100067.00;;;;4921370;29;20051;-59
2023/01/24 05:04:39;;;;;;;17.80;11.85;;;;;1.90;100076.00;;;;4921195;29;20440;-59
2023/01/24 05:07:05;;;;;;;22.55;13.13;;;;;1.90;100082.00;;;;4921637;29;20055;-59
2023/01/24 05:09:33;;;;;;;18.52;12.73;;;;;1.90;100076.00;;;;4921692;29;20052;-60
2023/01/24 05:12:05;;;;;;;19.50;12.15;;;;;1.90;100086.00;;;;4906254;29;20052;-62
2023/01/24 05:14:32;;;;;;;20.67;13.20;;;;;1.90;100079.00;;;;4920839;29;20509;-61
2023/01/24 05:16:59;;;;;;;17.38;11.15;;;;;1.90;100078.00;;;;4938372;29;20071;-60
2023/01/24 05:19:25;;;;;;;21.00;12.27;;;;;1.90;100079.00;;;;4921035;29;20078;-59
2023/01/24 05:21:56;;;;;;;19.67;12.07;;;;;1.80;100078.00;;;;4920844;29;20115;-60
2023/01/24 05:24:22;;;;;;;21.73;13.20;;;;;1.90;100082.00;;;;4937485;29;20038;-59
2023/01/24 05:26:49;;;;;;;21.42;12.10;;;;;1.90;100090.00;;;;4941248;29;20441;-62
2023/01/24 05:29:20;;;;;;;21.00;12.93;;;;;1.90;100090.00;;;;4927571;29;20531;-61
2023/01/24 05:31:51;;;;;;;20.45;13.05;;;;;1.90;100102.00;;;;4923101;29;20044;-61
2023/01/24 05:34:18;;;;;;;23.38;13.48;;;;;1.90;100098.00;;;;4920135;29;20044;-61
2023/01/24 05:36:45;;;;;;;21.40;13.15;;;;;1.90;100092.00;;;;4920635;29;20114;-62
2023/01/24 05:39:12;;;;;;;19.38;12.13;;;;;1.90;100113.00;;;;4920397;29;20420;-61
2023/01/24 05:41:41;;;;;;;21.77;13.75;;;;;1.90;100099.00;;;;4920405;29;20044;-63
2023/01/24 05:44:09;;;;;;;25.10;14.55;;;;;1.90;100116.00;;;;4919985;29;20123;-63
2023/01/24 05:46:39;;;;;;;43.45;23.83;;;;;2.00;100101.00;;;;4920445;29;20071;-62
2023/01/24 05:49:20;;;;;;;20.75;12.55;;;;;2.00;100115.00;;;;4920373;29;20079;-62
2023/01/24 05:51:48;;;;;;;19.45;12.38;;;;;1.90;100108.00;;;;4920284;29;20044;-62
2023/01/24 05:54:29;;;;;;;22.05;13.43;;;;;1.90;100103.00;;;;4920066;29;20051;-62
2023/01/24 05:56:59;;;;;;;19.45;12.73;;;;;1.90;100105.00;;;;4920715;29;20587;-62
2023/01/24 05:59:33;;;;;;;18.15;11.52;;;;;1.90;100108.00;;;;4919882;29;20103;-61
2023/01/24 06:02:00;;;;;;;21.50;12.35;;;;;1.90;100121.00;;;;4920074;29;20490;-62
2023/01/24 06:04:28;;;;;;;18.85;12.27;;;;;1.90;100122.00;;;;4920042;29;20107;-61
2023/01/24 06:06:55;;;;;;;17.95;11.25;;;;;1.90;100129.00;;;;4921417;29;20047;-61
2023/01/24 06:09:24;;;;;;;18.20;11.65;;;;;1.90;100126.00;;;;4923738;29;20130;-60
2023/01/24 06:11:51;;;;;;;20.15;11.88;;;;;1.90;100132.00;;;;4921943;29;20254;-61
2023/01/24 06:14:19;;;;;;;19.20;11.23;;;;;1.90;100130.00;;;;4919839;29;20055;-61
2023/01/24 06:16:48;;;;;;;21.17;12.52;;;;;1.90;100130.00;;;;4920218;29;20142;-60
2023/01/24 06:19:16;;;;;;;19.25;12.40;;;;;1.90;100144.00;;;;4920431;29;20051;-60
2023/01/24 06:21:44;;;;;;;17.88;11.75;;;;;1.90;100144.00;;;;4920231;29;20060;-60
2023/01/24 06:24:21;;;;;;;19.13;11.80;;;;;1.90;100140.00;;;;4921967;29;20047;-62
2023/01/24 06:27:16;;;;;;;19.70;12.32;;;;;1.90;100138.00;;;;4928668;29;20532;-61
2023/01/24 06:29:42;;;;;;;21.77;13.30;;;;;1.90;100142.00;;;;4942646;29;20070;-60
2023/01/24 06:32:20;;;;;;;23.10;13.50;;;;;1.90;100149.00;;;;4941512;29;20048;-60
2023/01/24 06:34:56;;;;;;;24.17;14.32;;;;;1.90;100153.00;;;;4922983;29;20507;-61
2023/01/24 06:37:29;;;;;;;22.55;13.38;;;;;1.90;100147.00;;;;4941675;29;20052;-61
2023/01/24 06:39:56;;;;;;;21.42;13.50;;;;;1.90;100152.00;;;;4926236;29;20126;-60
2023/01/24 06:42:23;;;;;;;20.58;13.18;;;;;1.80;100162.00;;;;4944264;29;20135;-61
2023/01/24 06:44:52;;;;;;;21.20;12.77;;;;;1.90;100162.00;;;;4944800;29;20082;-60
2023/01/24 06:47:18;;;;;;;21.20;13.73;;;;;1.90;100159.00;;;;4945860;29;20055;-61
2023/01/24 06:49:45;;;;;;;22.10;14.30;;;;;1.80;100163.00;;;;4927603;29;20073;-60
2023/01/24 06:52:13;;;;;;;24.38;14.10;;;;;1.80;100168.00;;;;4939315;29;20056;-60
2023/01/24 06:54:39;;;;;;;23.33;13.75;;;;;1.80;100163.00;;;;4935674;29;20040;-61
2023/01/24 06:57:06;;;;;;;22.90;13.88;;;;;1.80;100168.00;;;;4936862;29;20040;-63
2023/01/24 06:59:33;;;;;;;20.83;12.95;;;;;1.80;100169.00;;;;4919626;29;20131;-61
2023/01/24 07:01:59;;;;;;;21.48;13.35;;;;;1.80;100169.00;;;;4935831;29;20457;-62
2023/01/24 07:04:26;;;;;;;21.98;14.32;;;;;1.80;100162.00;;;;4935671;29;20051;-62
2023/01/24 07:06:52;;;;;;;22.38;13.93;;;;;1.80;100176.00;;;;4936137;29;20071;-62
2023/01/24 07:09:20;;;;;;;21.52;13.73;;;;;1.80;100171.00;;;;4935915;29;20111;-61
2023/01/24 07:11:55;;;;;;;24.88;14.30;;;;;1.80;100173.00;;;;4918759;29;20454;-61
2023/01/24 07:14:23;;;;;;;22.17;13.07;;;;;1.80;100176.00;;;;4918205;29;20047;-62
2023/01/24 07:16:50;;;;;;;27.17;14.73;;;;;1.80;100177.00;;;;4919041;29;20086;-61
2023/01/24 07:19:21;;;;;;;24.90;15.23;;;;;1.80;100178.00;;;;4935655;29;20043;-62
2023/01/24 07:21:56;;;;;;;22.40;14.02;;;;;1.90;100182.00;;;;4919989;29;20424;-62
2023/01/24 07:24:28;;;;;;;23.10;13.48;;;;;1.90;100176.00;;;;4935107;29;20527;-61
2023/01/24 07:26:55;;;;;;;23.38;13.65;;;;;1.90;100187.00;;;;4935661;29;20062;-61
2023/01/24 07:29:22;;;;;;;23.77;13.07;;;;;1.90;100189.00;;;;4935711;29;20043;-61
2023/01/24 07:31:50;;;;;;;18.70;12.65;;;;;1.90;100184.00;;;;4935401;29;20493;-63
2023/01/24 07:34:17;;;;;;;21.77;13.63;;;;;1.90;100188.00;;;;4902196;29;20119;-62
2023/01/24 07:36:45;;;;;;;20.52;12.45;;;;;1.90;100196.00;;;;4935718;29;20405;-61
2023/01/24 07:39:13;;;;;;;23.08;14.43;;;;;2.00;100202.00;;;;4935397;29;20051;-61
2023/01/24 07:41:42;;;;;;;20.30;12.80;;;;;1.90;100207.00;;;;4918334;29;20055;-59
2023/01/24 07:44:11;;;;;;;19.13;12.40;;;;;1.90;100196.00;;;;4917749;29;20126;-60
2023/01/24 07:46:38;;;;;;;21.95;13.43;;;;;1.90;100196.00;;;;4935263;29;20043;-60
2023/01/24 07:49:04;;;;;;;20.83;13.30;;;;;2.00;100200.00;;;;4935493;29;20051;-60
2023/01/24 07:51:31;;;;;;;23.35;14.43;;;;;2.10;100209.00;;;;4935370;29;20044;-60
2023/01/24 07:53:57;;;;;;;21.95;13.10;;;;;2.10;100205.00;;;;4935182;29;20048;-60
2023/01/24 07:56:24;;;;;;;23.83;14.40;;;;;2.10;100205.00;;;;4934671;29;20047;-61
2023/01/24 07:58:52;;;;;;;20.58;12.23;;;;;2.10;100207.00;;;;4935627;29;20079;-60
2023/01/24 08:01:21;;;;;;;21.40;13.32;;;;;2.20;100213.00;;;;4917970;29;20138;-60
2023/01/24 08:03:49;;;;;;;21.33;13.00;;;;;2.20;100207.00;;;;4935122;29;20131;-61
2023/01/24 08:06:16;;;;;;;22.67;13.52;;;;;2.30;100201.00;;;;4917766;29;20098;-60
2023/01/24 08:08:42;;;;;;;18.77;12.10;;;;;2.30;100213.00;;;;4936995;29;20051;-60
2023/01/24 08:11:11;;;;;;;20.58;12.82;;;;;2.30;100211.00;;;;4936283;29;20501;-60
2023/01/24 08:13:37;;;;;;;20.83;12.90;;;;;2.40;100211.00;;;;4935408;29;20058;-61
2023/01/24 08:16:04;;;;;;;36.20;21.25;;;;;2.40;100223.00;;;;4934755;29;20050;-60
2023/01/24 08:18:32;;;;;;;23.42;14.65;;;;;2.40;100219.00;;;;4935084;29;20044;-59
2023/01/24 08:20:59;;;;;;;21.42;12.85;;;;;2.50;100222.00;;;;4918194;29;20054;-62
2023/01/24 08:23:25;;;;;;;23.75;14.20;;;;;2.50;100221.00;;;;4935170;29;20066;-61
2023/01/24 08:25:52;;;;;;;22.13;12.90;;;;;2.40;100230.00;;;;4934191;29;20066;-60
2023/01/24 08:28:19;;;;;;;21.42;12.63;;;;;2.30;100221.00;;;;4934819;29;20107;-62
2023/01/24 08:30:45;;;;;;;20.45;13.65;;;;;2.30;100234.00;;;;4934716;29;20091;-61
2023/01/24 08:33:17;;;;;;;21.95;14.10;;;;;2.40;100232.00;;;;4934794;29;20044;-61
2023/01/24 08:35:45;;;;;;;21.35;13.35;;;;;2.40;100233.00;;;;4934431;29;20036;-61
2023/01/24 08:38:13;;;;;;;22.73;13.00;;;;;2.40;100235.00;;;;4934826;29;20056;-62
2023/01/24 08:40:39;;;;;;;22.67;14.65;;;;;2.40;100239.00;;;;4917826;29;20053;-62
2023/01/24 08:43:15;;;;;;;22.48;14.50;;;;;2.50;100234.00;;;;4934868;29;20067;-62
2023/01/24 08:45:41;;;;;;;22.52;13.82;;;;;2.50;100234.00;;;;4917241;29;20490;-61
2023/01/24 08:48:08;;;;;;;23.75;14.15;;;;;2.50;100238.00;;;;4934713;29;20048;-62
2023/01/24 08:50:34;;;;;;;25.73;14.68;;;;;2.50;100236.00;;;;4917961;29;20417;-62
2023/01/24 08:53:01;;;;;;;20.75;13.15;;;;;2.50;100244.00;;;;4935159;29;20095;-62
2023/01/24 08:55:27;;;;;;;22.75;13.68;;;;;2.40;100245.00;;;;4933907;29;20055;-61
2023/01/24 08:58:01;;;;;;;19.77;12.68;;;;;2.50;100254.00;;;;4934590;29;20095;-62
2023/01/24 09:00:27;;;;;;;23.17;13.15;;;;;2.40;100245.00;;;;4934780;29;20464;-63
2023/01/24 09:02:54;;;;;;;21.50;13.93;;;;;2.40;100252.00;;;;4934626;29;20040;-63
2023/01/24 09:05:21;;;;;;;20.38;13.43;;;;;2.50;100237.00;;;;4917389;29;20390;-63
2023/01/24 09:07:48;;;;;;;22.20;12.93;;;;;2.50;100247.00;;;;4917771;29;20075;-63
2023/01/24 09:10:15;;;;;;;19.92;13.07;;;;;2.40;100248.00;;;;4942668;29;20058;-62
2023/01/24 09:12:42;;;;;;;21.30;13.85;;;;;2.40;100248.00;;;;4942384;29;20564;-62
2023/01/24 09:15:08;;;;;;;21.73;13.25;;;;;2.40;100252.00;;;;4941057;29;20048;-61
2023/01/24 09:17:37;;;;;;;24.52;13.32;;;;;2.50;100253.00;;;;4940623;29;20061;-61
2023/01/24 09:20:05;;;;;;;23.25;13.98;;;;;2.50;100248.00;;;;4940871;29;20098;-62
2023/01/24 09:22:32;;;;;;;20.95;13.05;;;;;2.50;100253.00;;;;4923773;29;20047;-61
2023/01/24 09:24:58;;;;;;;22.13;14.43;;;;;2.50;100259.00;;;;4939973;29;20067;-61
2023/01/24 09:27:25;;;;;;;21.83;13.43;;;;;2.50;100258.00;;;;4924427;29;20131;-61
2023/01/24 09:29:52;;;;;;;20.83;12.70;;;;;2.40;100255.00;;;;4942583;29;20044;-61
2023/01/24 09:32:18;;;;;;;27.00;15.20;;;;;2.50;100266.00;;;;4942606;29;20048;-61
2023/01/24 09:34:47;;;;;;;20.25;12.23;;;;;2.50;100262.00;;;;4944268;29;20048;-61
2023/01/24 09:37:21;;;;;;;22.92;13.32;;;;;2.50;100261.00;;;;4944836;29;20051;-61
2023/01/24 09:39:48;;;;;;;19.55;12.07;;;;;2.50;100258.00;;;;4944294;29;20051;-62
2023/01/24 09:42:40;;;;;;;20.85;13.10;;;;;2.50;100269.00;;;;4943610;29;20059;-62
2023/01/24 09:45:07;;;;;;;21.20;12.77;;;;;2.50;100262.00;;;;4942531;29;20047;-61
2023/01/24 09:47:52;;;;;;;19.95;12.40;;;;;2.60;100258.00;;;;4943330;29;20058;-61
2023/01/24 09:50:23;;;;;;;21.50;12.38;;;;;2.60;100271.00;;;;4943739;29;20505;-61
2023/01/24 09:52:57;;;;;;;20.25;12.43;;;;;2.60;100266.00;;;;4927356;29;20579;-62
2023/01/24 09:55:28;;;;;;;18.10;12.38;;;;;2.60;100271.00;;;;4923457;29;20040;-62
2023/01/24 09:58:16;;;;;;;22.65;13.00;;;;;2.60;100265.00;;;;4937913;29;20047;-62
2023/01/24 10:00:43;;;;;;;21.13;12.93;;;;;2.60;100270.00;;;;4937583;29;20054;-62
2023/01/24 10:03:20;;;;;;;20.38;12.90;;;;;2.70;100265.00;;;;4937888;29;20044;-62
2023/01/24 10:05:56;;;;;;;20.63;12.07;;;;;2.70;100269.00;;;;4937190;29;20064;-62
2023/01/24 10:08:57;;;;;;;20.63;12.70;;;;;2.80;100266.00;;;;4938134;29;20058;-62
2023/01/24 10:11:26;;;;;;;22.52;12.15;;;;;2.70;100269.00;;;;4937182;29;20079;-62
2023/01/24 10:14:17;;;;;;;19.20;12.93;;;;;2.70;100266.00;;;;4920257;29;20047;-62
2023/01/24 10:17:03;;;;;;;19.50;12.63;;;;;2.80;100272.00;;;;4937055;29;20095;-62
2023/01/24 10:19:41;;;;;;;21.67;12.70;;;;;2.80;100269.00;;;;4937230;29;20055;-62
2023/01/24 10:22:23;;;;;;;18.83;11.98;;;;;2.80;100267.00;;;;4937260;29;20056;-62
2023/01/24 10:25:02;;;;;;;18.67;11.82;;;;;2.80;100263.00;;;;4936803;29;20048;-62
2023/01/24 10:27:34;;;;;;;18.83;12.40;;;;;2.90;100265.00;;;;4936850;29;20051;-62
2023/01/24 10:30:14;;;;;;;19.02;11.35;;;;;2.90;100269.00;;;;4936905;29;20494;-62
2023/01/24 10:32:43;;;;;;;18.35;11.93;;;;;2.90;100264.00;;;;4920060;29;20417;-62
2023/01/24 10:35:13;;;;;;;19.15;11.35;;;;;2.90;100261.00;;;;4919203;29;20404;-62
2023/01/24 10:37:43;;;;;;;18.35;11.25;;;;;2.90;100276.00;;;;4936943;29;20453;-62
2023/01/24 10:40:12;;;;;;;17.83;11.00;;;;;2.90;100282.00;;;;4936718;29;20453;-62
2023/01/24 10:42:39;;;;;;;20.35;12.63;;;;;2.90;100272.00;;;;4919523;29;20047;-62
2023/01/24 10:45:30;;;;;;;18.10;10.77;;;;;3.00;100266.00;;;;4936158;29;20047;-62
2023/01/24 10:48:02;;;;;;;18.45;12.15;;;;;3.00;100270.00;;;;4920204;29;20050;-62
2023/01/24 10:50:42;;;;;;;17.65;11.07;;;;;2.90;100270.00;;;;4919958;29;20134;-62
2023/01/24 10:53:26;;;;;;;20.10;11.50;;;;;3.00;100269.00;;;;4936517;29;20047;-62
2023/01/24 10:56:06;;;;;;;15.43;10.77;;;;;2.90;100271.00;;;;4935630;29;20050;-62
2023/01/24 10:58:41;;;;;;;17.77;10.50;;;;;2.80;100268.00;;;;4919593;29;20457;-62
2023/01/24 11:01:20;;;;;;;14.40;10.27;;;;;2.80;100265.00;;;;4936275;29;20514;-62
2023/01/24 11:03:49;;;;;;;17.77;11.20;;;;;2.80;100269.00;;;;4919365;29;20062;-62
2023/01/24 11:06:33;;;;;;;22.10;10.70;;;;;2.90;100283.00;;;;4935477;29;20039;-61
2023/01/24 11:09:19;;;;;;;17.48;10.40;;;;;2.90;100273.00;;;;4936103;29;20390;-62
2023/01/24 11:11:55;;;;;;;18.35;10.65;;;;;2.90;100270.00;;;;4935830;29;20080;-62
2023/01/24 11:14:27;;;;;;;17.38;11.02;;;;;2.90;100269.00;;;;4935584;29;20075;-62
2023/01/24 11:16:56;;;;;;;15.70;9.10;;;;;2.90;100264.00;;;;4936042;29;20051;-62
2023/01/24 11:19:34;;;;;;;15.88;9.88;;;;;2.90;100269.00;;;;4935877;29;20560;-62
2023/01/24 11:22:18;;;;;;;15.57;9.57;;;;;2.90;100266.00;;;;4936085;29;20054;-62
2023/01/24 11:24:46;;;;;;;14.85;9.80;;;;;2.90;100267.00;;;;4935508;29;20048;-62
2023/01/24 11:27:16;;;;;;;15.43;9.65;;;;;2.90;100271.00;;;;4935721;29;20516;-62
2023/01/24 11:29:44;;;;;;;14.07;8.95;;;;;2.90;100273.00;;;;4935667;29;20106;-62
2023/01/24 11:32:10;;;;;;;13.18;8.32;;;;;2.90;100275.00;;;;4935595;29;20044;-62
2023/01/24 11:34:44;;;;;;;13.82;8.98;;;;;2.90;100266.00;;;;4918070;29;20142;-63
2023/01/24 11:37:31;;;;;;;14.10;8.95;;;;;2.90;100269.00;;;;4918628;29;20048;-63
2023/01/24 11:40:04;;;;;;;15.43;9.43;;;;;2.90;100271.00;;;;4935538;29;20058;-63
2023/01/24 11:42:49;;;;;;;16.27;9.32;;;;;2.90;100263.00;;;;4935325;29;20047;-61
2023/01/24 11:45:54;;;;;;;13.52;9.32;;;;;2.90;100262.00;;;;4935100;29;20055;-62
2023/01/24 11:48:25;;;;;;;17.00;10.77;;;;;2.90;100261.00;;;;4935721;29;20039;-63
2023/01/24 11:51:07;;;;;;;15.98;9.80;;;;;3.00;100249.00;;;;4935472;29;20106;-62
2023/01/24 11:53:51;;;;;;;16.35;10.35;;;;;3.10;100250.00;;;;4935920;29;20050;-62
2023/01/24 11:56:42;;;;;;;14.82;9.65;;;;;3.10;100249.00;;;;4917066;29;20059;-63
2023/01/24 11:59:44;;;;;;;14.63;9.48;;;;;3.10;100247.00;;;;4935260;29;20071;-63
2023/01/24 12:02:42;;;;;;;15.45;9.80;;;;;3.00;100244.00;;;;4935346;29;20040;-63
2023/01/24 12:05:28;;;;;;;13.13;8.85;;;;;3.00;100228.00;;;;4918334;29;20072;-63
2023/01/24 12:08:01;;;;;;;14.60;9.45;;;;;3.00;100236.00;;;;4935865;29;20078;-62
2023/01/24 12:10:31;;;;;;;15.50;9.80;;;;;3.00;100234.00;;;;4919039;29;20048;-62
2023/01/24 12:13:17;;;;;;;13.38;9.00;;;;;3.00;100229.00;;;;4935469;29;20523;-62
2023/01/24 12:16:04;;;;;;;14.82;8.57;;;;;3.00;100232.00;;;;4934557;29;20470;-62
2023/01/24 12:18:51;;;;;;;17.20;10.07;;;;;3.00;100233.00;;;;4918036;29;20059;-62
2023/01/24 12:21:18;;;;;;;14.85;10.23;;;;;3.00;100226.00;;;;4935042;29;20051;-62
2023/01/24 12:24:00;;;;;;;12.63;8.50;;;;;3.10;100227.00;;;;4934928;29;20039;-62
2023/01/24 12:26:29;;;;;;;13.15;9.40;;;;;3.00;100229.00;;;;4935100;29;20044;-62
2023/01/24 12:29:06;;;;;;;12.68;8.77;;;;;3.10;100225.00;;;;4935250;29;20504;-62
2023/01/24 12:31:49;;;;;;;12.65;9.07;;;;;3.10;100223.00;;;;4917945;29;20052;-62
2023/01/24 12:34:43;;;;;;;14.63;9.32;;;;;3.10;100218.00;;;;4934636;29;20039;-62
2023/01/24 12:37:19;;;;;;;14.30;9.60;;;;;3.10;100211.00;;;;4917927;29;20043;-62
2023/01/24 12:40:00;;;;;;;14.80;9.27;;;;;3.10;100217.00;;;;4918077;29;20047;-62
2023/01/24 12:42:48;;;;;;;16.42;10.35;;;;;3.10;100216.00;;;;4918171;29;20052;-61
2023/01/24 12:45:23;;;;;;;14.38;8.70;;;;;3.20;100222.00;;;;4918094;29;20058;-62
2023/01/24 12:48:05;;;;;;;13.63;8.80;;;;;3.20;100226.00;;;;4935280;29;20051;-62
2023/01/24 12:50:52;;;;;;;14.13;9.45;;;;;3.20;100212.00;;;;4918420;29;20059;-62
2023/01/24 12:53:41;;;;;;;11.95;8.88;;;;;3.10;100211.00;;;;4934617;29;20508;-62
2023/01/24 12:56:19;;;;;;;15.98;9.77;;;;;3.10;100216.00;;;;4917398;29;20051;-61
2023/01/24 12:58:48;;;;;;;14.25;9.55;;;;;3.00;100221.00;;;;4934891;29;20048;-61